Cherry Valley, California
Current Conditions -  °F | °C
As of 3:33 AM on Tuesday 21 Oct 2014 (Local Time) from KRIV Reporting Station
Haze Haze  
Wind Chill: 55°   Ceiling: Unl
Heat Index: 55°   Visibility: 3mi
Dew Point: 55°   Wind: 2mph
Humidity: 100%   Direction: 160°SSE
Pressure: 29.92"   Gusts: NA
Location:  33.9205°N, 116.973°W
Report Text: KRIV 211033Z AUTO 16002KT 3SM BR FEW003 13/13 A2992 RMK AO2
Loading
Personal Weather Stations






























Interactive Weather Map
Tropical Storm Tracking
New forecast layout! Learn more

10-Day Weather Forecast

Advertisements
Track Severe Weather on mobile